sensor_id;sensor_type;location;lat;lon;timestamp;P1;durP1;ratioP1;P2;durP2;ratioP2
51194;SDS011;37259;49.972;19.850;2023-05-07T00:00:52;17.8;;;12.7;;
51194;SDS011;37259;49.972;19.850;2023-05-07T00:01:52;17.8;;;12.7;;
51194;SDS011;37259;49.972;19.850;2023-05-07T00:02:52;17.8;;;12.7;;
51194;SDS011;37259;49.972;19.850;2023-05-07T00:03:52;17.8;;;12.7;;
51194;SDS011;37259;49.972;19.850;2023-05-07T00:04:52;18.4;;;13;;
51194;SDS011;37259;49.972;19.850;2023-05-07T00:05:52;18.4;;;13;;
51194;SDS011;37259;49.972;19.850;2023-05-07T00:06:52;18.4;;;13;;
51194;SDS011;37259;49.972;19.850;2023-05-07T00:07:52;18.4;;;13;;
51194;SDS011;37259;49.972;19.850;2023-05-07T00:08:52;18.4;;;13;;
51194;SDS011;37259;49.972;19.850;2023-05-07T00:09:52;18.4;;;13;;
51194;SDS011;37259;49.972;19.850;2023-05-07T00:10:52;18.4;;;13;;
51194;SDS011;37259;49.972;19.850;2023-05-07T00:11:52;18.4;;;13;;
51194;SDS011;37259;49.972;19.850;2023-05-07T00:12:52;18.4;;;13;;
51194;SDS011;37259;49.972;19.850;2023-05-07T00:13:52;18.4;;;13;;
51194;SDS011;37259;49.972;19.850;2023-05-07T00:14:52;18.4;;;13;;
51194;SDS011;37259;49.972;19.850;2023-05-07T00:15:52;18.4;;;13;;
51194;SDS011;37259;49.972;19.850;2023-05-07T00:16:52;18.4;;;13;;
51194;SDS011;37259;49.972;19.850;2023-05-07T00:17:53;18.4;;;13;;
51194;SDS011;37259;49.972;19.850;2023-05-07T00:18:52;18.4;;;13;;
51194;SDS011;37259;49.972;19.850;2023-05-07T00:19:52;18.4;;;13;;
51194;SDS011;37259;49.972;19.850;2023-05-07T00:20:52;18.4;;;13;;
51194;SDS011;37259;49.972;19.850;2023-05-07T00:21:52;18.4;;;13;;
51194;SDS011;37259;49.972;19.850;2023-05-07T00:22:52;18.4;;;13;;
51194;SDS011;37259;49.972;19.850;2023-05-07T00:23:52;18.4;;;13;;
51194;SDS011;37259;49.972;19.850;2023-05-07T00:24:52;18.4;;;13;;
51194;SDS011;37259;49.972;19.850;2023-05-07T00:25:52;18.4;;;13;;
51194;SDS011;37259;49.972;19.850;2023-05-07T00:26:52;18.4;;;13;;
51194;SDS011;37259;49.972;19.850;2023-05-07T00:27:52;18.4;;;13;;
51194;SDS011;37259;49.972;19.850;2023-05-07T00:28:52;18.4;;;13;;
51194;SDS011;37259;49.972;19.850;2023-05-07T00:29:52;18.4;;;13;;
51194;SDS011;37259;49.972;19.850;2023-05-07T00:30:52;18.4;;;13;;
51194;SDS011;37259;49.972;19.850;2023-05-07T00:31:52;18.4;;;13;;
51194;SDS011;37259;49.972;19.850;2023-05-07T00:32:52;18.4;;;13;;
51194;SDS011;37259;49.972;19.850;2023-05-07T00:33:52;18.4;;;13;;
51194;SDS011;37259;49.972;19.850;2023-05-07T00:34:52;20.4;;;15.5;;
51194;SDS011;37259;49.972;19.850;2023-05-07T00:35:52;20.4;;;15.5;;
51194;SDS011;37259;49.972;19.850;2023-05-07T00:36:52;20.4;;;15.5;;
51194;SDS011;37259;49.972;19.850;2023-05-07T00:37:52;20.4;;;15.5;;
51194;SDS011;37259;49.972;19.850;2023-05-07T00:38:53;20.4;;;15.5;;
51194;SDS011;37259;49.972;19.850;2023-05-07T00:39:52;20.4;;;15.5;;
51194;SDS011;37259;49.972;19.850;2023-05-07T00:40:52;20.4;;;15.5;;
51194;SDS011;37259;49.972;19.850;2023-05-07T00:41:52;20.4;;;15.5;;
51194;SDS011;37259;49.972;19.850;2023-05-07T00:42:52;20.4;;;15.5;;
51194;SDS011;37259;49.972;19.850;2023-05-07T00:43:52;20.4;;;15.5;;
51194;SDS011;37259;49.972;19.850;2023-05-07T00:44:52;20.4;;;15.5;;
51194;SDS011;37259;49.972;19.850;2023-05-07T00:45:52;20.4;;;15.5;;
51194;SDS011;37259;49.972;19.850;2023-05-07T00:46:52;20.4;;;15.5;;
51194;SDS011;37259;49.972;19.850;2023-05-07T00:47:53;20.4;;;15.5;;
51194;SDS011;37259;49.972;19.850;2023-05-07T00:48:52;20.4;;;15.5;;
51194;SDS011;37259;49.972;19.850;2023-05-07T00:49:52;20.4;;;15.5;;
51194;SDS011;37259;49.972;19.850;2023-05-07T00:50:52;20.4;;;15.5;;
51194;SDS011;37259;49.972;19.850;2023-05-07T00:51:52;20.4;;;15.5;;
51194;SDS011;37259;49.972;19.850;2023-05-07T00:52:52;20.4;;;15.5;;
51194;SDS011;37259;49.972;19.850;2023-05-07T00:53:52;20.4;;;15.5;;
51194;SDS011;37259;49.972;19.850;2023-05-07T00:54:52;20.4;;;15.5;;
51194;SDS011;37259;49.972;19.850;2023-05-07T00:55:52;20.4;;;15.5;;
51194;SDS011;37259;49.972;19.850;2023-05-07T00:56:53;20.4;;;15.5;;
51194;SDS011;37259;49.972;19.850;2023-05-07T00:57:52;20.4;;;15.5;;
51194;SDS011;37259;49.972;19.850;2023-05-07T00:58:52;20.4;;;15.5;;
51194;SDS011;37259;49.972;19.850;2023-05-07T00:59:52;20.4;;;15.5;;
51194;SDS011;37259;49.972;19.850;2023-05-07T01:00:52;20.4;;;15.5;;
51194;SDS011;37259;49.972;19.850;2023-05-07T01:01:52;20.4;;;15.5;;
51194;SDS011;37259;49.972;19.850;2023-05-07T01:02:52;20.4;;;15.5;;
51194;SDS011;37259;49.972;19.850;2023-05-07T01:03:52;20.4;;;15.5;;
51194;SDS011;37259;49.972;19.850;2023-05-07T01:04:52;20.9;;;15.4;;
51194;SDS011;37259;49.972;19.850;2023-05-07T01:05:52;20.9;;;15.4;;
51194;SDS011;37259;49.972;19.850;2023-05-07T01:06:52;20.9;;;15.4;;
51194;SDS011;37259;49.972;19.850;2023-05-07T01:07:52;20.9;;;15.4;;
51194;SDS011;37259;49.972;19.850;2023-05-07T01:08:52;20.9;;;15.4;;
51194;SDS011;37259;49.972;19.850;2023-05-07T01:09:52;20.9;;;15.4;;
51194;SDS011;37259;49.972;19.850;2023-05-07T01:10:52;20.9;;;15.4;;
51194;SDS011;37259;49.972;19.850;2023-05-07T01:11:52;20.9;;;15.4;;
51194;SDS011;37259;49.972;19.850;2023-05-07T01:12:52;20.9;;;15.4;;
51194;SDS011;37259;49.972;19.850;2023-05-07T01:13:52;20.9;;;15.4;;
51194;SDS011;37259;49.972;19.850;2023-05-07T01:14:52;20.9;;;15.4;;
51194;SDS011;37259;49.972;19.850;2023-05-07T01:15:52;20.9;;;15.4;;
51194;SDS011;37259;49.972;19.850;2023-05-07T01:16:52;20.9;;;15.4;;
51194;SDS011;37259;49.972;19.850;2023-05-07T01:17:52;20.9;;;15.4;;
51194;SDS011;37259;49.972;19.850;2023-05-07T01:18:52;20.9;;;15.4;;
51194;SDS011;37259;49.972;19.850;2023-05-07T01:19:52;20.9;;;15.4;;
51194;SDS011;37259;49.972;19.850;2023-05-07T01:20:52;20.9;;;15.4;;
51194;SDS011;37259;49.972;19.850;2023-05-07T01:21:52;20.9;;;15.4;;
51194;SDS011;37259;49.972;19.850;2023-05-07T01:22:52;20.9;;;15.4;;
51194;SDS011;37259;49.972;19.850;2023-05-07T01:23:52;20.9;;;15.4;;
51194;SDS011;37259;49.972;19.850;2023-05-07T01:24:52;20.9;;;15.4;;
51194;SDS011;37259;49.972;19.850;2023-05-07T01:25:52;20.9;;;15.4;;
51194;SDS011;37259;49.972;19.850;2023-05-07T01:26:52;20.9;;;15.4;;
51194;SDS011;37259;49.972;19.850;2023-05-07T01:27:52;20.9;;;15.4;;
51194;SDS011;37259;49.972;19.850;2023-05-07T01:28:52;20.9;;;15.4;;
51194;SDS011;37259;49.972;19.850;2023-05-07T01:29:52;20.9;;;15.4;;
51194;SDS011;37259;49.972;19.850;2023-05-07T01:30:53;20.9;;;15.4;;
51194;SDS011;37259;49.972;19.850;2023-05-07T01:31:52;20.9;;;15.4;;
51194;SDS011;37259;49.972;19.850;2023-05-07T01:32:53;20.9;;;15.4;;
51194;SDS011;37259;49.972;19.850;2023-05-07T01:33:52;20.9;;;15.4;;
51194;SDS011;37259;49.972;19.850;2023-05-07T01:34:52;18.4;;;14.3;;
51194;SDS011;37259;49.972;19.850;2023-05-07T01:35:53;18.4;;;14.3;;
51194;SDS011;37259;49.972;19.850;2023-05-07T01:36:53;18.4;;;14.3;;
51194;SDS011;37259;49.972;19.850;2023-05-07T01:37:52;18.4;;;14.3;;
51194;SDS011;37259;49.972;19.850;2023-05-07T01:38:52;18.4;;;14.3;;
51194;SDS011;37259;49.972;19.850;2023-05-07T01:39:52;18.4;;;14.3;;
51194;SDS011;37259;49.972;19.850;2023-05-07T01:40:52;18.4;;;14.3;;
51194;SDS011;37259;49.972;19.850;2023-05-07T01:41:52;18.4;;;14.3;;
51194;SDS011;37259;49.972;19.850;2023-05-07T01:42:52;18.4;;;14.3;;
51194;SDS011;37259;49.972;19.850;2023-05-07T01:43:52;18.4;;;14.3;;
51194;SDS011;37259;49.972;19.850;2023-05-07T01:44:52;18.4;;;14.3;;
51194;SDS011;37259;49.972;19.850;2023-05-07T01:45:52;18.4;;;14.3;;
51194;SDS011;37259;49.972;19.850;2023-05-07T01:46:52;18.4;;;14.3;;
51194;SDS011;37259;49.972;19.850;2023-05-07T01:47:52;18.4;;;14.3;;
51194;SDS011;37259;49.972;19.850;2023-05-07T01:48:52;18.4;;;14.3;;
51194;SDS011;37259;49.972;19.850;2023-05-07T01:49:52;18.4;;;14.3;;
51194;SDS011;37259;49.972;19.850;2023-05-07T01:50:52;18.4;;;14.3;;
51194;SDS011;37259;49.972;19.850;2023-05-07T01:51:52;18.4;;;14.3;;
51194;SDS011;37259;49.972;19.850;2023-05-07T01:52:52;18.4;;;14.3;;
51194;SDS011;37259;49.972;19.850;2023-05-07T01:53:52;18.4;;;14.3;;
51194;SDS011;37259;49.972;19.850;2023-05-07T01:54:52;18.4;;;14.3;;
51194;SDS011;37259;49.972;19.850;2023-05-07T01:55:52;18.4;;;14.3;;
51194;SDS011;37259;49.972;19.850;2023-05-07T01:56:52;18.4;;;14.3;;
51194;SDS011;37259;49.972;19.850;2023-05-07T01:57:52;18.4;;;14.3;;
51194;SDS011;37259;49.972;19.850;2023-05-07T01:58:52;18.4;;;14.3;;
51194;SDS011;37259;49.972;19.850;2023-05-07T01:59:52;18.4;;;14.3;;
51194;SDS011;37259;49.972;19.850;2023-05-07T02:00:52;18.4;;;14.3;;
51194;SDS011;37259;49.972;19.850;2023-05-07T02:01:52;18.4;;;14.3;;
51194;SDS011;37259;49.972;19.850;2023-05-07T02:02:52;18.4;;;14.3;;
51194;SDS011;37259;49.972;19.850;2023-05-07T02:03:52;18.4;;;14.3;;
51194;SDS011;37259;49.972;19.850;2023-05-07T02:04:52;22.1;;;16;;
51194;SDS011;37259;49.972;19.850;2023-05-07T02:05:52;22.1;;;16;;
51194;SDS011;37259;49.972;19.850;2023-05-07T02:06:52;22.1;;;16;;
51194;SDS011;37259;49.972;19.850;2023-05-07T02:07:52;22.1;;;16;;
51194;SDS011;37259;49.972;19.850;2023-05-07T02:08:52;22.1;;;16;;
51194;SDS011;37259;49.972;19.850;2023-05-07T02:09:52;22.1;;;16;;
51194;SDS011;37259;49.972;19.850;2023-05-07T02:10:52;22.1;;;16;;
51194;SDS011;37259;49.972;19.850;2023-05-07T02:11:52;22.1;;;16;;
51194;SDS011;37259;49.972;19.850;2023-05-07T02:12:52;22.1;;;16;;
51194;SDS011;37259;49.972;19.850;2023-05-07T02:13:52;22.1;;;16;;
51194;SDS011;37259;49.972;19.850;2023-05-07T02:14:52;22.1;;;16;;
51194;SDS011;37259;49.972;19.850;2023-05-07T02:15:52;22.1;;;16;;
51194;SDS011;37259;49.972;19.850;2023-05-07T02:16:52;22.1;;;16;;
51194;SDS011;37259;49.972;19.850;2023-05-07T02:18:02;22.1;;;16;;
51194;SDS011;37259;49.972;19.850;2023-05-07T02:18:52;22.1;;;16;;
51194;SDS011;37259;49.972;19.850;2023-05-07T02:19:52;22.1;;;16;;
51194;SDS011;37259;49.972;19.850;2023-05-07T02:20:53;22.1;;;16;;
51194;SDS011;37259;49.972;19.850;2023-05-07T02:21:52;22.1;;;16;;
51194;SDS011;37259;49.972;19.850;2023-05-07T02:22:52;22.1;;;16;;
51194;SDS011;37259;49.972;19.850;2023-05-07T02:23:52;22.1;;;16;;
51194;SDS011;37259;49.972;19.850;2023-05-07T02:24:52;22.1;;;16;;
51194;SDS011;37259;49.972;19.850;2023-05-07T02:25:52;22.1;;;16;;
51194;SDS011;37259;49.972;19.850;2023-05-07T02:26:53;22.1;;;16;;
51194;SDS011;37259;49.972;19.850;2023-05-07T02:27:52;22.1;;;16;;
51194;SDS011;37259;49.972;19.850;2023-05-07T02:28:52;22.1;;;16;;
51194;SDS011;37259;49.972;19.850;2023-05-07T02:29:52;22.1;;;16;;
51194;SDS011;37259;49.972;19.850;2023-05-07T02:30:52;22.1;;;16;;
51194;SDS011;37259;49.972;19.850;2023-05-07T02:31:52;22.1;;;16;;
51194;SDS011;37259;49.972;19.850;2023-05-07T02:32:52;22.1;;;16;;
51194;SDS011;37259;49.972;19.850;2023-05-07T02:33:52;22.1;;;16;;
51194;SDS011;37259;49.972;19.850;2023-05-07T02:34:52;17.8;;;12.4;;
51194;SDS011;37259;49.972;19.850;2023-05-07T02:35:52;17.8;;;12.4;;
51194;SDS011;37259;49.972;19.850;2023-05-07T02:36:52;17.8;;;12.4;;
51194;SDS011;37259;49.972;19.850;2023-05-07T02:37:52;17.8;;;12.4;;
51194;SDS011;37259;49.972;19.850;2023-05-07T02:38:52;17.8;;;12.4;;
51194;SDS011;37259;49.972;19.850;2023-05-07T02:39:52;17.8;;;12.4;;
51194;SDS011;37259;49.972;19.850;2023-05-07T02:40:52;17.8;;;12.4;;
51194;SDS011;37259;49.972;19.850;2023-05-07T02:41:52;17.8;;;12.4;;
51194;SDS011;37259;49.972;19.850;2023-05-07T02:42:52;17.8;;;12.4;;
51194;SDS011;37259;49.972;19.850;2023-05-07T02:43:52;17.8;;;12.4;;
51194;SDS011;37259;49.972;19.850;2023-05-07T02:44:52;17.8;;;12.4;;
51194;SDS011;37259;49.972;19.850;2023-05-07T02:45:59;17.8;;;12.4;;
51194;SDS011;37259;49.972;19.850;2023-05-07T02:46:52;17.8;;;12.4;;
51194;SDS011;37259;49.972;19.850;2023-05-07T02:47:53;17.8;;;12.4;;
51194;SDS011;37259;49.972;19.850;2023-05-07T02:48:52;17.8;;;12.4;;
51194;SDS011;37259;49.972;19.850;2023-05-07T02:49:52;17.8;;;12.4;;
51194;SDS011;37259;49.972;19.850;2023-05-07T02:50:52;17.8;;;12.4;;
51194;SDS011;37259;49.972;19.850;2023-05-07T02:51:52;17.8;;;12.4;;
51194;SDS011;37259;49.972;19.850;2023-05-07T02:52:52;17.8;;;12.4;;
51194;SDS011;37259;49.972;19.850;2023-05-07T02:53:52;17.8;;;12.4;;
51194;SDS011;37259;49.972;19.850;2023-05-07T02:54:52;17.8;;;12.4;;
51194;SDS011;37259;49.972;19.850;2023-05-07T02:55:52;17.8;;;12.4;;
51194;SDS011;37259;49.972;19.850;2023-05-07T02:56:52;17.8;;;12.4;;
51194;SDS011;37259;49.972;19.850;2023-05-07T02:57:52;17.8;;;12.4;;
51194;SDS011;37259;49.972;19.850;2023-05-07T02:58:52;17.8;;;12.4;;
51194;SDS011;37259;49.972;19.850;2023-05-07T02:59:52;17.8;;;12.4;;
51194;SDS011;37259;49.972;19.850;2023-05-07T03:00:52;17.8;;;12.4;;
51194;SDS011;37259;49.972;19.850;2023-05-07T03:01:52;17.8;;;12.4;;
51194;SDS011;37259;49.972;19.850;2023-05-07T03:02:52;17.8;;;12.4;;
51194;SDS011;37259;49.972;19.850;2023-05-07T03:03:52;17.8;;;12.4;;
51194;SDS011;37259;49.972;19.850;2023-05-07T03:04:52;16.2;;;10.3;;
51194;SDS011;37259;49.972;19.850;2023-05-07T03:05:52;16.2;;;10.3;;
51194;SDS011;37259;49.972;19.850;2023-05-07T03:06:53;16.2;;;10.3;;
51194;SDS011;37259;49.972;19.850;2023-05-07T03:07:52;16.2;;;10.3;;
51194;SDS011;37259;49.972;19.850;2023-05-07T03:08:52;16.2;;;10.3;;
51194;SDS011;37259;49.972;19.850;2023-05-07T03:09:52;16.2;;;10.3;;
51194;SDS011;37259;49.972;19.850;2023-05-07T03:10:52;16.2;;;10.3;;
51194;SDS011;37259;49.972;19.850;2023-05-07T03:11:52;16.2;;;10.3;;
51194;SDS011;37259;49.972;19.850;2023-05-07T03:12:52;16.2;;;10.3;;
51194;SDS011;37259;49.972;19.850;2023-05-07T03:13:52;16.2;;;10.3;;
51194;SDS011;37259;49.972;19.850;2023-05-07T03:14:52;16.2;;;10.3;;
51194;SDS011;37259;49.972;19.850;2023-05-07T03:15:52;16.2;;;10.3;;
51194;SDS011;37259;49.972;19.850;2023-05-07T03:16:52;16.2;;;10.3;;
51194;SDS011;37259;49.972;19.850;2023-05-07T03:17:52;16.2;;;10.3;;
51194;SDS011;37259;49.972;19.850;2023-05-07T03:18:52;16.2;;;10.3;;
51194;SDS011;37259;49.972;19.850;2023-05-07T03:19:52;16.2;;;10.3;;
51194;SDS011;37259;49.972;19.850;2023-05-07T03:20:52;16.2;;;10.3;;
51194;SDS011;37259;49.972;19.850;2023-05-07T03:21:52;16.2;;;10.3;;
51194;SDS011;37259;49.972;19.850;2023-05-07T03:22:52;16.2;;;10.3;;
51194;SDS011;37259;49.972;19.850;2023-05-07T03:23:52;16.2;;;10.3;;
51194;SDS011;37259;49.972;19.850;2023-05-07T03:24:52;16.2;;;10.3;;
51194;SDS011;37259;49.972;19.850;2023-05-07T03:25:52;16.2;;;10.3;;
51194;SDS011;37259;49.972;19.850;2023-05-07T03:26:53;16.2;;;10.3;;
51194;SDS011;37259;49.972;19.850;2023-05-07T03:27:52;16.2;;;10.3;;
51194;SDS011;37259;49.972;19.850;2023-05-07T03:28:52;16.2;;;10.3;;
51194;SDS011;37259;49.972;19.850;2023-05-07T03:29:52;16.2;;;10.3;;
51194;SDS011;37259;49.972;19.850;2023-05-07T03:30:52;16.2;;;10.3;;
51194;SDS011;37259;49.972;19.850;2023-05-07T03:31:52;16.2;;;10.3;;
51194;SDS011;37259;49.972;19.850;2023-05-07T03:32:52;16.2;;;10.3;;
51194;SDS011;37259;49.972;19.850;2023-05-07T03:33:53;12.8;;;7.7;;
51194;SDS011;37259;49.972;19.850;2023-05-07T03:34:52;12.8;;;7.7;;
51194;SDS011;37259;49.972;19.850;2023-05-07T03:35:52;12.8;;;7.7;;
51194;SDS011;37259;49.972;19.850;2023-05-07T03:36:52;12.8;;;7.7;;
51194;SDS011;37259;49.972;19.850;2023-05-07T03:37:52;12.8;;;7.7;;
51194;SDS011;37259;49.972;19.850;2023-05-07T03:38:52;12.8;;;7.7;;
51194;SDS011;37259;49.972;19.850;2023-05-07T03:39:52;12.8;;;7.7;;
51194;SDS011;37259;49.972;19.850;2023-05-07T03:40:52;12.8;;;7.7;;
51194;SDS011;37259;49.972;19.850;2023-05-07T03:41:52;12.8;;;7.7;;
51194;SDS011;37259;49.972;19.850;2023-05-07T03:42:52;12.8;;;7.7;;
51194;SDS011;37259;49.972;19.850;2023-05-07T03:43:52;12.8;;;7.7;;
51194;SDS011;37259;49.972;19.850;2023-05-07T03:44:52;12.8;;;7.7;;
51194;SDS011;37259;49.972;19.850;2023-05-07T03:45:52;12.8;;;7.7;;
51194;SDS011;37259;49.972;19.850;2023-05-07T03:46:52;12.8;;;7.7;;
51194;SDS011;37259;49.972;19.850;2023-05-07T03:47:52;12.8;;;7.7;;
51194;SDS011;37259;49.972;19.850;2023-05-07T03:48:52;12.8;;;7.7;;
51194;SDS011;37259;49.972;19.850;2023-05-07T03:49:52;12.8;;;7.7;;
51194;SDS011;37259;49.972;19.850;2023-05-07T03:50:52;12.8;;;7.7;;
51194;SDS011;37259;49.972;19.850;2023-05-07T03:51:52;12.8;;;7.7;;
51194;SDS011;37259;49.972;19.850;2023-05-07T03:52:52;12.8;;;7.7;;
51194;SDS011;37259;49.972;19.850;2023-05-07T03:53:52;12.8;;;7.7;;
51194;SDS011;37259;49.972;19.850;2023-05-07T03:54:52;12.8;;;7.7;;
51194;SDS011;37259;49.972;19.850;2023-05-07T03:55:52;12.8;;;7.7;;
51194;SDS011;37259;49.972;19.850;2023-05-07T03:56:52;12.8;;;7.7;;
51194;SDS011;37259;49.972;19.850;2023-05-07T03:57:52;12.8;;;7.7;;
51194;SDS011;37259;49.972;19.850;2023-05-07T03:58:52;12.8;;;7.7;;
51194;SDS011;37259;49.972;19.850;2023-05-07T03:59:52;12.8;;;7.7;;
51194;SDS011;37259;49.972;19.850;2023-05-07T04:00:52;12.8;;;7.7;;
51194;SDS011;37259;49.972;19.850;2023-05-07T04:01:52;12.8;;;7.7;;
51194;SDS011;37259;49.972;19.850;2023-05-07T04:02:52;12.8;;;7.7;;
51194;SDS011;37259;49.972;19.850;2023-05-07T04:03:52;9.6;;;4.9;;
51194;SDS011;37259;49.972;19.850;2023-05-07T04:04:52;9.6;;;4.9;;
51194;SDS011;37259;49.972;19.850;2023-05-07T04:05:52;9.6;;;4.9;;
51194;SDS011;37259;49.972;19.850;2023-05-07T04:06:52;9.6;;;4.9;;
51194;SDS011;37259;49.972;19.850;2023-05-07T04:07:52;9.6;;;4.9;;
51194;SDS011;37259;49.972;19.850;2023-05-07T04:08:52;9.6;;;4.9;;
51194;SDS011;37259;49.972;19.850;2023-05-07T04:09:52;9.6;;;4.9;;
51194;SDS011;37259;49.972;19.850;2023-05-07T04:10:55;9.6;;;4.9;;
51194;SDS011;37259;49.972;19.850;2023-05-07T04:11:52;9.6;;;4.9;;
51194;SDS011;37259;49.972;19.850;2023-05-07T04:12:52;9.6;;;4.9;;
51194;SDS011;37259;49.972;19.850;2023-05-07T04:13:52;9.6;;;4.9;;
51194;SDS011;37259;49.972;19.850;2023-05-07T04:14:52;9.6;;;4.9;;
51194;SDS011;37259;49.972;19.850;2023-05-07T04:15:53;9.6;;;4.9;;
51194;SDS011;37259;49.972;19.850;2023-05-07T04:16:52;9.6;;;4.9;;
51194;SDS011;37259;49.972;19.850;2023-05-07T04:17:52;9.6;;;4.9;;
51194;SDS011;37259;49.972;19.850;2023-05-07T04:18:52;9.6;;;4.9;;
51194;SDS011;37259;49.972;19.850;2023-05-07T04:19:52;9.6;;;4.9;;
51194;SDS011;37259;49.972;19.850;2023-05-07T04:20:52;9.6;;;4.9;;
51194;SDS011;37259;49.972;19.850;2023-05-07T04:21:52;9.6;;;4.9;;
51194;SDS011;37259;49.972;19.850;2023-05-07T04:22:52;9.6;;;4.9;;
51194;SDS011;37259;49.972;19.850;2023-05-07T04:23:52;9.6;;;4.9;;
51194;SDS011;37259;49.972;19.850;2023-05-07T04:24:52;9.6;;;4.9;;
51194;SDS011;37259;49.972;19.850;2023-05-07T04:25:52;9.6;;;4.9;;
51194;SDS011;37259;49.972;19.850;2023-05-07T04:26:52;9.6;;;4.9;;
51194;SDS011;37259;49.972;19.850;2023-05-07T04:27:52;9.6;;;4.9;;
51194;SDS011;37259;49.972;19.850;2023-05-07T04:28:52;9.6;;;4.9;;
51194;SDS011;37259;49.972;19.850;2023-05-07T04:29:52;9.6;;;4.9;;
51194;SDS011;37259;49.972;19.850;2023-05-07T04:30:52;9.6;;;4.9;;
51194;SDS011;37259;49.972;19.850;2023-05-07T04:31:52;9.6;;;4.9;;
51194;SDS011;37259;49.972;19.850;2023-05-07T04:32:52;9.6;;;4.9;;
51194;SDS011;37259;49.972;19.850;2023-05-07T04:33:52;6.8;;;3.3;;
51194;SDS011;37259;49.972;19.850;2023-05-07T04:34:52;6.8;;;3.3;;
51194;SDS011;37259;49.972;19.850;2023-05-07T04:35:52;6.8;;;3.3;;
51194;SDS011;37259;49.972;19.850;2023-05-07T04:36:52;6.8;;;3.3;;
51194;SDS011;37259;49.972;19.850;2023-05-07T04:37:52;6.8;;;3.3;;
51194;SDS011;37259;49.972;19.850;2023-05-07T04:38:52;6.8;;;3.3;;
51194;SDS011;37259;49.972;19.850;2023-05-07T04:39:52;6.8;;;3.3;;
51194;SDS011;37259;49.972;19.850;2023-05-07T04:40:52;6.8;;;3.3;;
51194;SDS011;37259;49.972;19.850;2023-05-07T04:41:52;6.8;;;3.3;;
51194;SDS011;37259;49.972;19.850;2023-05-07T04:42:52;6.8;;;3.3;;
51194;SDS011;37259;49.972;19.850;2023-05-07T04:43:52;6.8;;;3.3;;
51194;SDS011;37259;49.972;19.850;2023-05-07T04:44:52;6.8;;;3.3;;
51194;SDS011;37259;49.972;19.850;2023-05-07T04:45:52;6.8;;;3.3;;
51194;SDS011;37259;49.972;19.850;2023-05-07T04:46:52;6.8;;;3.3;;
51194;SDS011;37259;49.972;19.850;2023-05-07T04:47:52;6.8;;;3.3;;
51194;SDS011;37259;49.972;19.850;2023-05-07T04:48:52;6.8;;;3.3;;
51194;SDS011;37259;49.972;19.850;2023-05-07T04:49:52;6.8;;;3.3;;
51194;SDS011;37259;49.972;19.850;2023-05-07T04:50:52;6.8;;;3.3;;
51194;SDS011;37259;49.972;19.850;2023-05-07T04:51:52;6.8;;;3.3;;
51194;SDS011;37259;49.972;19.850;2023-05-07T04:52:52;6.8;;;3.3;;
51194;SDS011;37259;49.972;19.850;2023-05-07T04:53:52;6.8;;;3.3;;
51194;SDS011;37259;49.972;19.850;2023-05-07T04:54:52;6.8;;;3.3;;
51194;SDS011;37259;49.972;19.850;2023-05-07T04:55:54;6.8;;;3.3;;
51194;SDS011;37259;49.972;19.850;2023-05-07T04:56:52;6.8;;;3.3;;
51194;SDS011;37259;49.972;19.850;2023-05-07T04:57:52;6.8;;;3.3;;
51194;SDS011;37259;49.972;19.850;2023-05-07T04:58:52;6.8;;;3.3;;
51194;SDS011;37259;49.972;19.850;2023-05-07T04:59:52;6.8;;;3.3;;
51194;SDS011;37259;49.972;19.850;2023-05-07T05:00:52;6.8;;;3.3;;
51194;SDS011;37259;49.972;19.850;2023-05-07T05:01:52;6.8;;;3.3;;
51194;SDS011;37259;49.972;19.850;2023-05-07T05:02:52;6.8;;;3.3;;
51194;SDS011;37259;49.972;19.850;2023-05-07T05:03:52;3.8;;;1.8;;
51194;SDS011;37259;49.972;19.850;2023-05-07T05:04:52;3.8;;;1.8;;
51194;SDS011;37259;49.972;19.850;2023-05-07T05:05:52;3.8;;;1.8;;
51194;SDS011;37259;49.972;19.850;2023-05-07T05:06:52;3.8;;;1.8;;
51194;SDS011;37259;49.972;19.850;2023-05-07T05:07:52;3.8;;;1.8;;
51194;SDS011;37259;49.972;19.850;2023-05-07T05:08:52;3.8;;;1.8;;
51194;SDS011;37259;49.972;19.850;2023-05-07T05:09:52;3.8;;;1.8;;
51194;SDS011;37259;49.972;19.850;2023-05-07T05:10:52;3.8;;;1.8;;
51194;SDS011;37259;49.972;19.850;2023-05-07T05:11:52;3.8;;;1.8;;
51194;SDS011;37259;49.972;19.850;2023-05-07T05:12:52;3.8;;;1.8;;
51194;SDS011;37259;49.972;19.850;2023-05-07T05:13:52;3.8;;;1.8;;
51194;SDS011;37259;49.972;19.850;2023-05-07T05:14:52;3.8;;;1.8;;
51194;SDS011;37259;49.972;19.850;2023-05-07T05:15:52;3.8;;;1.8;;
51194;SDS011;37259;49.972;19.850;2023-05-07T05:16:52;3.8;;;1.8;;
51194;SDS011;37259;49.972;19.850;2023-05-07T05:17:52;3.8;;;1.8;;
51194;SDS011;37259;49.972;19.850;2023-05-07T05:18:52;3.8;;;1.8;;
51194;SDS011;37259;49.972;19.850;2023-05-07T05:19:52;3.8;;;1.8;;
51194;SDS011;37259;49.972;19.850;2023-05-07T05:20:52;3.8;;;1.8;;
51194;SDS011;37259;49.972;19.850;2023-05-07T05:21:52;3.8;;;1.8;;
51194;SDS011;37259;49.972;19.850;2023-05-07T05:22:52;3.8;;;1.8;;
51194;SDS011;37259;49.972;19.850;2023-05-07T05:23:52;3.8;;;1.8;;
51194;SDS011;37259;49.972;19.850;2023-05-07T05:24:52;3.8;;;1.8;;
51194;SDS011;37259;49.972;19.850;2023-05-07T05:25:55;3.8;;;1.8;;
51194;SDS011;37259;49.972;19.850;2023-05-07T05:26:53;3.8;;;1.8;;
51194;SDS011;37259;49.972;19.850;2023-05-07T05:27:52;3.8;;;1.8;;
51194;SDS011;37259;49.972;19.850;2023-05-07T05:28:52;3.8;;;1.8;;
51194;SDS011;37259;49.972;19.850;2023-05-07T05:29:52;3.8;;;1.8;;
51194;SDS011;37259;49.972;19.850;2023-05-07T05:30:52;3.8;;;1.8;;
51194;SDS011;37259;49.972;19.850;2023-05-07T05:31:52;3.8;;;1.8;;
51194;SDS011;37259;49.972;19.850;2023-05-07T05:32:52;3.8;;;1.8;;
51194;SDS011;37259;49.972;19.850;2023-05-07T05:33:52;4.5;;;1.6;;
51194;SDS011;37259;49.972;19.850;2023-05-07T05:34:52;4.5;;;1.6;;
51194;SDS011;37259;49.972;19.850;2023-05-07T05:35:53;4.5;;;1.6;;
51194;SDS011;37259;49.972;19.850;2023-05-07T05:36:52;4.5;;;1.6;;
51194;SDS011;37259;49.972;19.850;2023-05-07T05:37:52;4.5;;;1.6;;
51194;SDS011;37259;49.972;19.850;2023-05-07T05:38:52;4.5;;;1.6;;
51194;SDS011;37259;49.972;19.850;2023-05-07T05:39:52;4.5;;;1.6;;
51194;SDS011;37259;49.972;19.850;2023-05-07T05:40:52;4.5;;;1.6;;
51194;SDS011;37259;49.972;19.850;2023-05-07T05:41:52;4.5;;;1.6;;
51194;SDS011;37259;49.972;19.850;2023-05-07T05:42:52;4.5;;;1.6;;
51194;SDS011;37259;49.972;19.850;2023-05-07T05:43:52;4.5;;;1.6;;
51194;SDS011;37259;49.972;19.850;2023-05-07T05:44:52;4.5;;;1.6;;
51194;SDS011;37259;49.972;19.850;2023-05-07T05:45:52;4.5;;;1.6;;
51194;SDS011;37259;49.972;19.850;2023-05-07T05:46:52;4.5;;;1.6;;
51194;SDS011;37259;49.972;19.850;2023-05-07T05:47:52;4.5;;;1.6;;
51194;SDS011;37259;49.972;19.850;2023-05-07T05:48:52;4.5;;;1.6;;
51194;SDS011;37259;49.972;19.850;2023-05-07T05:49:52;4.5;;;1.6;;
51194;SDS011;37259;49.972;19.850;2023-05-07T05:50:52;4.5;;;1.6;;
51194;SDS011;37259;49.972;19.850;2023-05-07T05:51:52;4.5;;;1.6;;
51194;SDS011;37259;49.972;19.850;2023-05-07T05:52:52;4.5;;;1.6;;
51194;SDS011;37259;49.972;19.850;2023-05-07T05:53:52;4.5;;;1.6;;
51194;SDS011;37259;49.972;19.850;2023-05-07T05:54:53;4.5;;;1.6;;
51194;SDS011;37259;49.972;19.850;2023-05-07T05:55:52;4.5;;;1.6;;
51194;SDS011;37259;49.972;19.850;2023-05-07T05:56:52;4.5;;;1.6;;
51194;SDS011;37259;49.972;19.850;2023-05-07T05:57:52;4.5;;;1.6;;
51194;SDS011;37259;49.972;19.850;2023-05-07T05:58:52;4.5;;;1.6;;
51194;SDS011;37259;49.972;19.850;2023-05-07T05:59:52;4.5;;;1.6;;
51194;SDS011;37259;49.972;19.850;2023-05-07T06:00:52;4.5;;;1.6;;
51194;SDS011;37259;49.972;19.850;2023-05-07T06:01:52;4.5;;;1.6;;